createdAt,value
2017-01-27T00:00:31.958Z,1013.28
2017-01-27T00:01:38.119Z,1013.24
2017-01-27T00:02:44.294Z,1013.22
2017-01-27T00:03:50.471Z,1013.19
2017-01-27T00:04:55.671Z,1013.2
2017-01-27T00:06:00.843Z,1013.21
2017-01-27T00:07:07.020Z,1013.14
2017-01-27T00:08:12.221Z,1013.15
2017-01-27T00:09:14.518Z,1013.17
2017-01-27T00:10:20.708Z,1013.17
2017-01-27T00:11:25.906Z,1013.18
2017-01-27T00:12:32.068Z,1013.15
2017-01-27T00:13:36.265Z,1013.12
2017-01-27T00:14:42.456Z,1013.13
2017-01-27T00:15:48.619Z,1013.09
2017-01-27T00:16:53.804Z,1013.05
2017-01-27T00:17:58.977Z,1013.04
2017-01-27T00:19:05.154Z,1012.98
2017-01-27T00:20:10.341Z,1012.94
2017-01-27T00:21:15.551Z,1012.92
2017-01-27T00:22:21.722Z,1012.88
2017-01-27T00:23:27.882Z,1012.85
2017-01-27T00:24:33.086Z,1012.92
2017-01-27T00:25:39.254Z,1012.86
2017-01-27T00:26:43.485Z,1012.87
2017-01-27T00:27:48.750Z,1012.76
2017-01-27T00:28:53.947Z,1012.8
2017-01-27T00:29:59.143Z,1012.79
2017-01-27T00:31:02.376Z,1012.76
2017-01-27T00:32:07.603Z,1012.72
2017-01-27T00:33:12.792Z,1012.7
2017-01-27T00:34:18.078Z,1012.71
2017-01-27T00:35:24.235Z,1012.72
2017-01-27T00:36:28.543Z,1012.68
2017-01-27T00:37:32.636Z,1012.69
2017-01-27T00:38:37.839Z,1012.69
2017-01-27T00:39:43.997Z,1012.65
2017-01-27T00:40:48.224Z,1012.64
2017-01-27T00:41:54.385Z,1012.62
2017-01-27T00:42:58.603Z,1012.59
2017-01-27T00:44:02.806Z,1012.6
2017-01-27T00:45:08.112Z,1012.61
2017-01-27T00:46:14.287Z,1012.59
2017-01-27T00:47:18.478Z,1012.67
2017-01-27T00:48:24.667Z,1012.57
2017-01-27T00:49:28.858Z,1012.56
2017-01-27T00:50:35.021Z,1012.53
2017-01-27T00:51:41.220Z,1012.56
2017-01-27T00:52:46.417Z,1012.57
2017-01-27T00:53:51.566Z,1012.6
2017-01-27T00:54:56.797Z,1012.56
2017-01-27T00:56:02.951Z,1012.52
2017-01-27T00:57:08.146Z,1012.52
2017-01-27T00:58:14.302Z,1012.51
2017-01-27T00:59:20.475Z,1012.48
2017-01-27T01:00:25.678Z,1012.47
2017-01-27T01:01:30.867Z,1012.46
2017-01-27T01:02:37.018Z,1012.43
2017-01-27T01:03:42.219Z,1012.37
2017-01-27T01:04:47.408Z,1012.38
2017-01-27T01:05:53.574Z,1012.43
2017-01-27T01:06:58.838Z,1012.39
2017-01-27T01:08:03.955Z,1012.45
2017-01-27T01:09:10.116Z,1012.42
2017-01-27T01:10:15.309Z,1012.35
2017-01-27T01:11:21.485Z,1012.32
2017-01-27T01:12:27.659Z,1012.3
2017-01-27T01:13:32.821Z,1012.26
2017-01-27T01:14:38.976Z,1012.26
2017-01-27T01:15:45.146Z,1012.23
2017-01-27T01:16:51.309Z,1012.17
2017-01-27T01:17:56.525Z,1012.15
2017-01-27T01:19:01.719Z,1012.14
2017-01-27T01:20:07.878Z,1012.09
2017-01-27T01:21:13.071Z,1012.07
2017-01-27T01:22:16.341Z,1012.01
2017-01-27T01:23:22.523Z,1011.97
2017-01-27T01:24:27.745Z,1011.94
2017-01-27T01:25:33.874Z,1011.97
2017-01-27T01:26:39.077Z,1011.96
2017-01-27T01:27:45.253Z,1012.03
2017-01-27T01:28:51.411Z,1012.07
2017-01-27T01:29:57.577Z,1012.09
2017-01-27T01:31:01.779Z,1012.09
2017-01-27T01:32:06.940Z,1012.11
2017-01-27T01:33:12.101Z,1012.1
2017-01-27T01:34:15.459Z,1012.07
2017-01-27T01:35:21.619Z,1012.04
2017-01-27T01:36:24.864Z,1012.03
2017-01-27T01:37:31.025Z,1011.93
2017-01-27T01:38:36.218Z,1011.88
2017-01-27T01:39:40.458Z,1011.93
2017-01-27T01:40:46.635Z,1011.93
2017-01-27T01:41:49.878Z,1011.94
2017-01-27T01:42:56.039Z,1011.89
2017-01-27T01:44:01.229Z,1011.97
2017-01-27T01:45:06.404Z,1012.03
2017-01-27T01:46:12.571Z,1012.06
2017-01-27T01:47:17.739Z,1012.04
2017-01-27T01:48:24.006Z,1012.04
2017-01-27T01:49:29.202Z,1012.03
2017-01-27T01:50:35.366Z,1012.02
2017-01-27T01:51:40.554Z,1011.97
2017-01-27T01:52:46.715Z,1011.96
2017-01-27T01:53:52.880Z,1011.9
2017-01-27T01:54:57.109Z,1011.91
2017-01-27T01:56:03.269Z,1011.9
2017-01-27T01:57:09.434Z,1011.92
2017-01-27T01:58:13.664Z,1011.85
2017-01-27T01:59:17.854Z,1011.83
2017-01-27T02:00:24.125Z,1011.76
2017-01-27T02:01:28.355Z,1011.69
2017-01-27T02:02:31.623Z,1011.68
2017-01-27T02:03:37.776Z,1011.62
2017-01-27T02:04:41.971Z,1011.56
2017-01-27T02:05:48.129Z,1011.6
2017-01-27T02:06:53.341Z,1011.65
2017-01-27T02:07:58.531Z,1011.77
2017-01-27T02:09:04.716Z,1011.75
2017-01-27T02:10:10.891Z,1011.75
2017-01-27T02:11:17.057Z,1011.76
2017-01-27T02:12:22.251Z,1011.78
2017-01-27T02:13:26.496Z,1011.77
2017-01-27T02:14:32.661Z,1011.78
2017-01-27T02:15:36.911Z,1011.73
2017-01-27T02:16:41.105Z,1011.72
2017-01-27T02:17:46.307Z,1011.69
2017-01-27T02:18:51.473Z,1011.68
2017-01-27T02:19:56.668Z,1011.63
2017-01-27T02:21:01.873Z,1011.61
2017-01-27T02:22:08.030Z,1011.61
2017-01-27T02:23:14.191Z,1011.59
2017-01-27T02:24:20.352Z,1011.65
2017-01-27T02:25:26.546Z,1011.65
2017-01-27T02:26:31.760Z,1011.63
2017-01-27T02:27:37.004Z,1011.61
2017-01-27T02:28:43.146Z,1011.62
2017-01-27T02:29:48.311Z,1011.55
2017-01-27T02:30:54.473Z,1011.52
2017-01-27T02:32:00.669Z,1011.49
2017-01-27T02:33:03.905Z,1011.52
2017-01-27T02:34:10.071Z,1011.57
2017-01-27T02:35:16.227Z,1011.48
2017-01-27T02:36:21.426Z,1011.42
2017-01-27T02:37:26.628Z,1011.45
2017-01-27T02:38:32.793Z,1011.51
2017-01-27T02:39:38.959Z,1011.53
2017-01-27T02:40:45.115Z,1011.53
2017-01-27T02:41:50.308Z,1011.53
2017-01-27T02:42:55.509Z,1011.47
2017-01-27T02:44:01.772Z,1011.48
2017-01-27T02:45:05.999Z,1011.47
2017-01-27T02:46:11.167Z,1011.47
2017-01-27T02:47:17.326Z,1011.47
2017-01-27T02:48:21.526Z,1011.42
2017-01-27T02:49:24.836Z,1011.5
2017-01-27T02:50:30.076Z,1011.49
2017-01-27T02:51:35.269Z,1011.47
2017-01-27T02:52:40.468Z,1011.44
2017-01-27T02:53:45.659Z,1011.37
2017-01-27T02:54:50.851Z,1011.28
2017-01-27T02:55:56.073Z,1011.31
2017-01-27T02:57:01.255Z,1011.38
2017-01-27T02:58:07.418Z,1011.39
2017-01-27T02:59:13.584Z,1011.36
2017-01-27T03:00:17.781Z,1011.43
2017-01-27T03:01:23.940Z,1011.49
2017-01-27T03:02:29.111Z,1011.55
2017-01-27T03:03:35.284Z,1011.58
2017-01-27T03:04:41.448Z,1011.47
2017-01-27T03:05:45.676Z,1011.46
2017-01-27T03:06:50.865Z,1011.42
2017-01-27T03:07:57.028Z,1011.44
2017-01-27T03:09:01.229Z,1011.42
2017-01-27T03:10:06.423Z,1011.4
2017-01-27T03:11:11.613Z,1011.33
2017-01-27T03:12:17.773Z,1011.38
2017-01-27T03:13:23.053Z,1011.41
2017-01-27T03:14:28.267Z,1011.42
2017-01-27T03:15:33.480Z,1011.38
2017-01-27T03:16:39.629Z,1011.4
2017-01-27T03:17:45.835Z,1011.42
2017-01-27T03:18:49.051Z,1011.37
2017-01-27T03:19:52.342Z,1011.39
2017-01-27T03:20:56.542Z,1011.32
2017-01-27T03:22:01.813Z,1011.24
2017-01-27T03:23:07.173Z,1011.19
2017-01-27T03:24:13.330Z,1011.24
2017-01-27T03:25:19.494Z,1011.25
2017-01-27T03:26:24.689Z,1011.25
2017-01-27T03:27:29.881Z,1011.2
2017-01-27T03:28:35.069Z,1011.14
2017-01-27T03:29:39.303Z,1011.15
2017-01-27T03:30:44.495Z,1011.08
2017-01-27T03:31:49.721Z,1011.03
2017-01-27T03:32:55.844Z,1011.02
2017-01-27T03:34:02.110Z,1011.03
2017-01-27T03:35:06.318Z,1011.06
2017-01-27T03:36:11.522Z,1011.06
2017-01-27T03:37:16.723Z,1011.03
2017-01-27T03:38:21.042Z,1011.03
2017-01-27T03:39:27.202Z,1011.01
2017-01-27T03:40:32.398Z,1011
2017-01-27T03:41:37.609Z,1011.04
2017-01-27T03:42:41.844Z,1011
2017-01-27T03:43:48.083Z,1011.03
2017-01-27T03:44:54.237Z,1011.06
2017-01-27T03:46:00.397Z,1011.11
2017-01-27T03:47:06.560Z,1011.14
2017-01-27T03:48:11.904Z,1011.14
2017-01-27T03:49:18.062Z,1011.18
2017-01-27T03:50:21.387Z,1011.13
2017-01-27T03:51:26.588Z,1011.14
2017-01-27T03:52:31.750Z,1011.23
2017-01-27T03:53:37.915Z,1011.28
2017-01-27T03:54:43.106Z,1011.23
2017-01-27T03:55:49.354Z,1011.18
2017-01-27T03:56:53.581Z,1011.21
2017-01-27T03:57:57.846Z,1011.26
2017-01-27T03:59:03.081Z,1011.21
2017-01-27T04:00:09.240Z,1011.22
2017-01-27T04:01:14.437Z,1011.25
2017-01-27T04:02:20.592Z,1011.21
2017-01-27T04:03:24.784Z,1011.3
2017-01-27T04:04:30.939Z,1011.28
2017-01-27T04:05:37.149Z,1011.22
2017-01-27T04:06:43.268Z,1011.17
2017-01-27T04:07:49.433Z,1011.27
2017-01-27T04:08:55.607Z,1011.28
2017-01-27T04:10:01.776Z,1011.29
2017-01-27T04:11:04.034Z,1011.27
2017-01-27T04:12:10.275Z,1011.32
2017-01-27T04:13:14.460Z,1011.31
2017-01-27T04:14:19.689Z,1011.33
2017-01-27T04:15:24.881Z,1011.32
2017-01-27T04:16:30.089Z,1011.33
2017-01-27T04:17:35.282Z,1011.33
2017-01-27T04:18:39.484Z,1011.33
2017-01-27T04:19:44.686Z,1011.32
2017-01-27T04:20:48.905Z,1011.35
2017-01-27T04:23:00.256Z,1011.37
2017-01-27T04:24:05.457Z,1011.36
2017-01-27T04:25:11.615Z,1011.35
2017-01-27T04:26:17.800Z,1011.38
2017-01-27T04:27:23.037Z,1011.4
2017-01-27T04:28:29.197Z,1011.34
2017-01-27T04:29:34.358Z,1011.37
2017-01-27T04:30:39.547Z,1011.34
2017-01-27T04:31:45.701Z,1011.23
2017-01-27T04:32:51.903Z,1011.19
2017-01-27T04:33:57.097Z,1011.22
2017-01-27T04:35:02.345Z,1011.2
2017-01-27T04:36:07.504Z,1011.22
2017-01-27T04:37:13.660Z,1011.23
2017-01-27T04:38:19.840Z,1011.32
2017-01-27T04:39:26.031Z,1011.38
2017-01-27T04:40:31.230Z,1011.3
2017-01-27T04:41:36.435Z,1011.35
2017-01-27T04:42:41.629Z,1011.36
2017-01-27T04:43:45.867Z,1011.38
2017-01-27T04:44:52.029Z,1011.35
2017-01-27T04:45:58.189Z,1011.33
2017-01-27T04:47:02.416Z,1011.35
2017-01-27T04:48:07.583Z,1011.42
2017-01-27T04:49:13.746Z,1011.39
2017-01-27T04:50:17.982Z,1011.36
2017-01-27T04:51:24.147Z,1011.32
2017-01-27T04:52:29.384Z,1011.3
2017-01-27T04:53:33.588Z,1011.31
2017-01-27T04:54:38.781Z,1011.32
2017-01-27T04:55:43.111Z,1011.37
2017-01-27T04:56:48.236Z,1011.3
2017-01-27T04:57:53.439Z,1011.35
2017-01-27T04:58:59.644Z,1011.4
2017-01-27T05:00:03.885Z,1011.4
2017-01-27T05:01:10.051Z,1011.31
2017-01-27T05:02:15.242Z,1011.31
2017-01-27T05:03:20.440Z,1011.32
2017-01-27T05:04:26.612Z,1011.36
2017-01-27T05:05:31.810Z,1011.32
2017-01-27T05:06:37.003Z,1011.32
2017-01-27T05:07:42.196Z,1011.23
2017-01-27T05:08:48.419Z,1011.26
2017-01-27T05:09:54.531Z,1011.24
2017-01-27T05:11:00.689Z,1011.18
2017-01-27T05:12:05.883Z,1011.22
2017-01-27T05:13:11.105Z,1011.22
2017-01-27T05:14:17.265Z,1011.18
2017-01-27T05:15:22.455Z,1011.23
2017-01-27T05:16:26.723Z,1011.21
2017-01-27T05:17:32.861Z,1011.19
2017-01-27T05:18:38.022Z,1011.14
2017-01-27T05:19:43.220Z,1011.19
2017-01-27T05:20:49.376Z,1011.21
2017-01-27T05:21:55.544Z,1011.21
2017-01-27T05:22:59.745Z,1011.23
2017-01-27T05:24:04.908Z,1011.18
2017-01-27T05:25:11.073Z,1011.2
2017-01-27T05:26:15.303Z,1011.16
2017-01-27T05:27:20.511Z,1011.17
2017-01-27T05:28:26.664Z,1011.11
2017-01-27T05:29:31.861Z,1011.15
2017-01-27T05:30:36.087Z,1011.15
2017-01-27T05:31:42.250Z,1011.15
2017-01-27T05:32:47.439Z,1011.11
2017-01-27T05:33:53.598Z,1011.2
2017-01-27T05:34:59.809Z,1011.24
2017-01-27T05:36:05.019Z,1011.25
2017-01-27T05:37:11.175Z,1011.28
2017-01-27T05:38:17.331Z,1011.23
2017-01-27T05:39:23.495Z,1011.26
2017-01-27T05:40:29.655Z,1011.25
2017-01-27T05:41:32.883Z,1011.21
2017-01-27T05:42:38.079Z,1011.24
2017-01-27T05:43:44.240Z,1011.27
2017-01-27T05:44:50.420Z,1011.23
2017-01-27T05:45:56.580Z,1011.26
2017-01-27T05:47:00.803Z,1011.23
2017-01-27T05:48:06.008Z,1011.24
2017-01-27T05:49:10.240Z,1011.26
2017-01-27T05:50:16.397Z,1011.23
2017-01-27T05:51:22.634Z,1011.25
2017-01-27T05:52:27.839Z,1011.27
2017-01-27T05:53:33.999Z,1011.19
2017-01-27T05:54:40.194Z,1011.22
2017-01-27T05:55:46.329Z,1011.27
2017-01-27T05:56:51.524Z,1011.26
2017-01-27T05:57:56.737Z,1011.2
2017-01-27T05:59:02.886Z,1011.23
2017-01-27T06:00:08.087Z,1011.16
2017-01-27T06:01:14.249Z,1011.18
2017-01-27T06:02:19.570Z,1011.13
2017-01-27T06:03:23.802Z,1011.16
2017-01-27T06:04:29.986Z,1011.08
2017-01-27T06:05:34.218Z,1011.15
2017-01-27T06:06:40.377Z,1011.18
2017-01-27T06:07:46.541Z,1011.16
2017-01-27T06:08:50.786Z,1011.23
2017-01-27T06:09:56.944Z,1011.28
2017-01-27T06:11:02.139Z,1011.3
2017-01-27T06:12:07.337Z,1011.33
2017-01-27T06:13:13.498Z,1011.32
2017-01-27T06:14:19.654Z,1011.31
2017-01-27T06:15:25.825Z,1011.34
2017-01-27T06:16:31.023Z,1011.29
2017-01-27T06:17:37.249Z,1011.31
2017-01-27T06:18:42.373Z,1011.26
2017-01-27T06:19:47.599Z,1011.24
2017-01-27T06:20:53.730Z,1011.12
2017-01-27T06:21:59.914Z,1011.14
2017-01-27T06:23:05.108Z,1011.13
2017-01-27T06:24:11.275Z,1011.14
2017-01-27T06:25:16.454Z,1011.14
2017-01-27T06:26:22.618Z,1011.13
2017-01-27T06:27:28.780Z,1011.14
2017-01-27T06:28:34.992Z,1011.13
2017-01-27T06:29:41.112Z,1011.11
2017-01-27T06:30:47.279Z,1011.1
2017-01-27T06:31:52.473Z,1011.05
2017-01-27T06:32:56.703Z,1011.07
2017-01-27T06:34:01.900Z,1011.11
2017-01-27T06:35:06.096Z,1011.13
2017-01-27T06:36:12.256Z,1011.13
2017-01-27T06:37:18.414Z,1011.19
2017-01-27T06:38:23.612Z,1011.23
2017-01-27T06:39:28.797Z,1011.22
2017-01-27T06:40:34.956Z,1011.24
2017-01-27T06:41:39.179Z,1011.25
2017-01-27T06:42:45.342Z,1011.25
2017-01-27T06:43:50.687Z,1011.27
2017-01-27T06:44:54.922Z,1011.18
2017-01-27T06:46:00.202Z,1011.24
2017-01-27T06:47:05.406Z,1011.25
2017-01-27T06:48:10.606Z,1011.21
2017-01-27T06:49:16.759Z,1011.21
2017-01-27T06:50:20.975Z,1011.19
2017-01-27T06:51:26.176Z,1011.19
2017-01-27T06:52:31.421Z,1011.2
2017-01-27T06:53:37.597Z,1011.2
2017-01-27T06:54:43.758Z,1011.18
2017-01-27T06:55:49.929Z,1011.26
2017-01-27T06:56:56.089Z,1011.26
2017-01-27T06:58:02.250Z,1011.28
2017-01-27T06:59:08.422Z,1011.3
2017-01-27T07:00:14.582Z,1011.27
2017-01-27T07:01:20.757Z,1011.24
2017-01-27T07:02:26.925Z,1011.25
2017-01-27T07:03:32.116Z,1011.18
2017-01-27T07:04:36.346Z,1011.16
2017-01-27T07:05:42.545Z,1011.17
2017-01-27T07:06:47.740Z,1011.19
2017-01-27T07:07:52.961Z,1011.2
2017-01-27T07:08:58.149Z,1011.22
2017-01-27T07:10:03.357Z,1011.28
2017-01-27T07:11:09.527Z,1011.23
2017-01-27T07:12:13.856Z,1011.29
2017-01-27T07:13:19.031Z,1011.25
2017-01-27T07:14:23.279Z,1011.24
2017-01-27T07:15:29.440Z,1011.28
2017-01-27T07:16:34.635Z,1011.3
2017-01-27T07:17:40.839Z,1011.27
2017-01-27T07:18:46.018Z,1011.26
2017-01-27T07:19:52.175Z,1011.32
2017-01-27T07:20:58.388Z,1011.32
2017-01-27T07:22:04.555Z,1011.36
2017-01-27T07:23:08.780Z,1011.36
2017-01-27T07:24:13.973Z,1011.35
2017-01-27T07:25:18.278Z,1011.31
2017-01-27T07:26:24.462Z,1011.34
2017-01-27T07:27:29.657Z,1011.36
2017-01-27T07:28:34.849Z,1011.37
2017-01-27T07:29:40.999Z,1011.37
2017-01-27T07:30:46.186Z,1011.38
2017-01-27T07:31:52.392Z,1011.39
2017-01-27T07:32:57.706Z,1011.4
2017-01-27T07:35:08.121Z,1011.43
2017-01-27T07:36:12.312Z,1011.44
2017-01-27T07:37:17.501Z,1011.44
2017-01-27T07:38:23.662Z,1011.44
2017-01-27T07:39:29.833Z,1011.48
2017-01-27T07:40:35.035Z,1011.48
2017-01-27T07:41:41.195Z,1011.48
2017-01-27T07:42:46.397Z,1011.49
2017-01-27T07:43:51.717Z,1011.52
2017-01-27T07:44:57.881Z,1011.53
2017-01-27T07:46:02.179Z,1011.48
2017-01-27T07:47:08.435Z,1011.46
2017-01-27T07:48:12.659Z,1011.45
2017-01-27T07:49:18.853Z,1011.5
2017-01-27T07:50:24.999Z,1011.51
2017-01-27T07:51:29.197Z,1011.52
2017-01-27T07:52:33.427Z,1011.51
2017-01-27T07:53:38.624Z,1011.51
2017-01-27T07:54:44.785Z,1011.53
2017-01-27T07:55:49.980Z,1011.51
2017-01-27T07:56:55.168Z,1011.51
2017-01-27T07:58:00.368Z,1011.51
2017-01-27T07:59:05.562Z,1011.55
2017-01-27T08:00:10.782Z,1011.5
2017-01-27T08:01:15.977Z,1011.47
2017-01-27T08:02:21.174Z,1011.51
2017-01-27T08:03:25.401Z,1011.48
2017-01-27T08:04:30.607Z,1011.43
2017-01-27T08:05:35.828Z,1011.47
2017-01-27T08:06:41.032Z,1011.5
2017-01-27T08:07:47.203Z,1011.52
2017-01-27T08:08:52.361Z,1011.55
2017-01-27T08:09:57.572Z,1011.59
2017-01-27T08:11:03.751Z,1011.63
2017-01-27T08:12:07.943Z,1011.61
2017-01-27T08:13:14.108Z,1011.67
2017-01-27T08:14:19.315Z,1011.62
2017-01-27T08:15:24.478Z,1011.67
2017-01-27T08:16:29.683Z,1011.6
2017-01-27T08:17:34.880Z,1011.6
2017-01-27T08:18:41.077Z,1011.58
2017-01-27T08:19:47.226Z,1011.63
2017-01-27T08:20:53.416Z,1011.53
2017-01-27T08:21:58.616Z,1011.58
2017-01-27T08:23:04.757Z,1011.61
2017-01-27T08:24:10.928Z,1011.57
2017-01-27T08:25:16.140Z,1011.6
2017-01-27T08:26:22.316Z,1011.66
2017-01-27T08:27:27.509Z,1011.62
2017-01-27T08:28:32.714Z,1011.58
2017-01-27T08:29:37.927Z,1011.59
2017-01-27T08:30:43.096Z,1011.62
2017-01-27T08:31:48.290Z,1011.66
2017-01-27T08:32:53.458Z,1011.67
2017-01-27T08:33:59.629Z,1011.69
2017-01-27T08:35:05.818Z,1011.67
2017-01-27T08:36:11.024Z,1011.66
2017-01-27T08:37:15.228Z,1011.67
2017-01-27T08:38:20.445Z,1011.62
2017-01-27T08:39:26.607Z,1011.71
2017-01-27T08:40:31.801Z,1011.65
2017-01-27T08:41:37.959Z,1011.59
2017-01-27T08:42:44.156Z,1011.6
2017-01-27T08:43:48.393Z,1011.62
2017-01-27T08:44:54.628Z,1011.63
2017-01-27T08:46:00.742Z,1011.63
2017-01-27T08:47:04.978Z,1011.7
2017-01-27T08:48:10.315Z,1011.71
2017-01-27T08:49:15.523Z,1011.69
2017-01-27T08:50:20.726Z,1011.65
2017-01-27T08:51:25.931Z,1011.67
2017-01-27T08:52:31.223Z,1011.7
2017-01-27T08:53:36.329Z,1011.68
2017-01-27T08:54:42.517Z,1011.71
2017-01-27T08:55:48.663Z,1011.7
2017-01-27T08:56:52.892Z,1011.68
2017-01-27T08:57:59.060Z,1011.66
2017-01-27T08:59:04.256Z,1011.7
2017-01-27T09:00:10.429Z,1011.71
2017-01-27T09:01:16.588Z,1011.76
2017-01-27T09:02:20.840Z,1011.72
2017-01-27T09:03:27.020Z,1011.71
2017-01-27T09:04:33.186Z,1011.73
2017-01-27T09:05:39.353Z,1011.77
2017-01-27T09:06:45.526Z,1011.77
2017-01-27T09:07:51.734Z,1011.77
2017-01-27T09:08:57.933Z,1011.75
2017-01-27T09:10:04.104Z,1011.81
2017-01-27T09:11:09.303Z,1011.83
2017-01-27T09:12:15.472Z,1011.82
2017-01-27T09:13:19.711Z,1011.83
2017-01-27T09:14:23.937Z,1011.81
2017-01-27T09:15:30.098Z,1011.79
2017-01-27T09:16:35.305Z,1011.85
2017-01-27T09:17:40.568Z,1011.83
2017-01-27T09:19:51.985Z,1011.91
2017-01-27T09:20:55.214Z,1011.93
2017-01-27T09:21:59.535Z,1011.94
2017-01-27T09:23:05.704Z,1011.93
2017-01-27T09:24:10.897Z,1011.92
2017-01-27T09:25:16.097Z,1011.91
2017-01-27T09:26:22.261Z,1011.9
2017-01-27T09:27:27.465Z,1011.95
2017-01-27T09:28:32.698Z,1012.03
2017-01-27T09:29:37.896Z,1011.99
2017-01-27T09:30:43.126Z,1011.94
2017-01-27T09:31:49.297Z,1011.92
2017-01-27T09:32:54.477Z,1011.94
2017-01-27T09:34:00.663Z,1011.91
2017-01-27T09:35:05.866Z,1011.96
2017-01-27T09:36:12.033Z,1011.89
2017-01-27T09:37:17.237Z,1011.96
2017-01-27T09:38:20.523Z,1012
2017-01-27T09:39:24.722Z,1011.94
2017-01-27T09:40:29.938Z,1011.9
2017-01-27T09:41:35.160Z,1011.88
2017-01-27T09:42:41.334Z,1011.88
2017-01-27T09:43:45.548Z,1011.9
2017-01-27T09:44:51.713Z,1011.86
2017-01-27T09:45:54.991Z,1011.89
2017-01-27T09:47:01.124Z,1011.92
2017-01-27T09:48:06.322Z,1011.89
2017-01-27T09:49:12.563Z,1011.89
2017-01-27T09:50:18.734Z,1011.88
2017-01-27T09:51:23.934Z,1011.84
2017-01-27T09:52:29.137Z,1011.95
2017-01-27T09:53:34.359Z,1011.86
2017-01-27T09:54:40.491Z,1011.87
2017-01-27T09:55:44.800Z,1011.92
2017-01-27T09:56:50.927Z,1011.93
2017-01-27T09:57:56.124Z,1011.93
2017-01-27T09:59:02.285Z,1011.96
2017-01-27T10:00:08.452Z,1011.91
2017-01-27T10:01:12.694Z,1011.89
2017-01-27T10:02:18.864Z,1011.82
2017-01-27T10:03:23.093Z,1011.82
2017-01-27T10:04:27.413Z,1011.88
2017-01-27T10:05:31.652Z,1011.95
2017-01-27T10:06:36.852Z,1011.96
2017-01-27T10:07:41.109Z,1011.96
2017-01-27T10:08:46.327Z,1011.95
2017-01-27T10:09:52.487Z,1012.03
2017-01-27T10:10:57.693Z,1012.06
2017-01-27T10:12:03.861Z,1012.07
2017-01-27T10:13:10.075Z,1012.05
2017-01-27T10:14:16.365Z,1012.01
2017-01-27T10:15:21.683Z,1012.03
2017-01-27T10:16:27.855Z,1012.02
2017-01-27T10:17:34.039Z,1011.96
2017-01-27T10:18:38.244Z,1011.98
2017-01-27T10:19:44.410Z,1012.06
2017-01-27T10:20:49.619Z,1011.96
2017-01-27T10:21:54.832Z,1012.05
2017-01-27T10:23:00.025Z,1012.05
2017-01-27T10:24:05.291Z,1012.05
2017-01-27T10:25:10.494Z,1012.03
2017-01-27T10:26:16.667Z,1012
2017-01-27T10:27:22.838Z,1011.99
2017-01-27T10:28:29.025Z,1011.99
2017-01-27T10:29:35.184Z,1012.01
2017-01-27T10:30:41.374Z,1011.92
2017-01-27T10:31:46.576Z,1011.9
2017-01-27T10:32:51.783Z,1011.9
2017-01-27T10:33:56.947Z,1011.92
2017-01-27T10:35:02.159Z,1011.98
2017-01-27T10:36:08.339Z,1011.91
2017-01-27T10:37:11.601Z,1012.11
2017-01-27T10:38:15.849Z,1011.93
2017-01-27T10:39:22.018Z,1011.96
2017-01-27T10:40:26.243Z,1011.99
2017-01-27T10:41:32.417Z,1012.03
2017-01-27T10:42:37.591Z,1012.11
2017-01-27T10:43:43.874Z,1012.03
2017-01-27T10:44:49.073Z,1011.94
2017-01-27T10:46:58.515Z,1011.94
2017-01-27T10:48:03.696Z,1011.84
2017-01-27T10:49:07.939Z,1011.77
2017-01-27T10:50:13.104Z,1011.8
2017-01-27T10:51:17.374Z,1011.77
2017-01-27T10:52:22.674Z,1011.74
2017-01-27T10:53:27.774Z,1011.71
2017-01-27T10:54:32.975Z,1011.69
2017-01-27T10:55:38.181Z,1011.68
2017-01-27T10:56:42.429Z,1011.63
2017-01-27T10:57:47.639Z,1011.65
2017-01-27T10:58:52.897Z,1011.65
2017-01-27T10:59:58.108Z,1011.67
2017-01-27T11:01:04.279Z,1011.73
2017-01-27T11:02:08.547Z,1011.72
2017-01-27T11:03:14.707Z,1011.76
2017-01-27T11:04:18.965Z,1011.77
2017-01-27T11:05:24.176Z,1011.78
2017-01-27T11:06:30.345Z,1011.76
2017-01-27T11:07:36.519Z,1011.76
2017-01-27T11:08:41.721Z,1011.74
2017-01-27T11:09:47.891Z,1011.72
2017-01-27T11:10:53.103Z,1011.77
2017-01-27T11:11:59.268Z,1011.76
2017-01-27T11:13:05.444Z,1011.72
2017-01-27T11:14:10.621Z,1011.76
2017-01-27T11:15:16.788Z,1011.8
2017-01-27T11:16:21.963Z,1011.78
2017-01-27T11:17:24.241Z,1011.78
2017-01-27T11:18:30.397Z,1011.7
2017-01-27T11:19:35.630Z,1011.6
2017-01-27T11:20:41.780Z,1011.49
2017-01-27T11:21:47.952Z,1011.53
2017-01-27T11:22:54.180Z,1011.62
2017-01-27T11:24:00.359Z,1011.65
2017-01-27T11:25:05.562Z,1011.67
2017-01-27T11:26:10.790Z,1011.74
2017-01-27T11:27:16.971Z,1011.76
2017-01-27T11:28:23.104Z,1011.77
2017-01-27T11:29:28.318Z,1011.81
2017-01-27T11:30:32.564Z,1011.78
2017-01-27T11:31:37.753Z,1011.72
2017-01-27T11:32:42.957Z,1011.75
2017-01-27T11:33:48.193Z,1011.7
2017-01-27T11:34:54.327Z,1011.75
2017-01-27T11:35:59.533Z,1011.7
2017-01-27T11:37:02.772Z,1011.71
2017-01-27T11:38:09.062Z,1011.66
2017-01-27T11:39:14.223Z,1011.63
2017-01-27T11:40:20.385Z,1011.62
2017-01-27T11:41:24.647Z,1011.6
2017-01-27T11:42:30.831Z,1011.59
2017-01-27T11:43:36.028Z,1011.56
2017-01-27T11:44:42.188Z,1011.55
2017-01-27T11:45:47.392Z,1011.56
2017-01-27T11:46:53.564Z,1011.59
2017-01-27T11:47:57.854Z,1011.61
2017-01-27T11:49:04.047Z,1011.58
2017-01-27T11:50:08.290Z,1011.57
2017-01-27T11:51:12.483Z,1011.59
2017-01-27T11:52:17.688Z,1011.55
2017-01-27T11:53:22.888Z,1011.6
2017-01-27T11:54:29.060Z,1011.61
2017-01-27T11:55:34.288Z,1011.56
2017-01-27T11:56:39.459Z,1011.57
2017-01-27T11:57:45.630Z,1011.58
2017-01-27T11:58:51.799Z,1011.59
2017-01-27T11:59:57.965Z,1011.54
2017-01-27T12:01:04.192Z,1011.55
2017-01-27T12:02:10.360Z,1011.51
2017-01-27T12:03:14.570Z,1011.49
2017-01-27T12:04:20.781Z,1011.49
2017-01-27T12:05:25.944Z,1011.37
2017-01-27T12:06:31.159Z,1011.4
2017-01-27T12:07:37.369Z,1011.41
2017-01-27T12:08:43.506Z,1011.38
2017-01-27T12:09:49.685Z,1011.37
2017-01-27T12:10:55.866Z,1011.42
2017-01-27T12:12:02.044Z,1011.38
2017-01-27T12:13:06.272Z,1011.47
2017-01-27T12:14:12.454Z,1011.46
2017-01-27T12:15:18.636Z,1011.44
2017-01-27T12:16:24.805Z,1011.42
2017-01-27T12:17:29.048Z,1011.47
2017-01-27T12:18:35.209Z,1011.44
2017-01-27T12:19:40.410Z,1011.39
2017-01-27T12:20:46.575Z,1011.43
2017-01-27T12:21:50.810Z,1011.34
2017-01-27T12:22:56.004Z,1011.33
2017-01-27T12:24:02.176Z,1011.33
2017-01-27T12:25:07.346Z,1011.34
2017-01-27T12:26:12.589Z,1011.27
2017-01-27T12:27:18.724Z,1011.24
2017-01-27T12:28:24.891Z,1011.24
2017-01-27T12:29:29.197Z,1011.2
2017-01-27T12:30:34.392Z,1011.22
2017-01-27T12:31:39.588Z,1011.24
2017-01-27T12:32:44.790Z,1011.25
2017-01-27T12:33:49.997Z,1011.18
2017-01-27T12:34:56.227Z,1011.19
2017-01-27T12:36:02.462Z,1011.23
2017-01-27T12:37:07.673Z,1011.25
2017-01-27T12:38:11.014Z,1011.26
2017-01-27T12:39:16.216Z,1011.21
2017-01-27T12:40:22.384Z,1011.21
2017-01-27T12:41:27.574Z,1011.18
2017-01-27T12:42:32.833Z,1011.19
2017-01-27T12:43:38.105Z,1011.17
2017-01-27T12:44:43.275Z,1011.12
2017-01-27T12:45:49.458Z,1011.15
2017-01-27T12:46:55.635Z,1011.14
2017-01-27T12:48:00.854Z,1011.15
2017-01-27T12:49:06.059Z,1011.12
2017-01-27T12:50:09.333Z,1011.15
2017-01-27T12:51:15.502Z,1011.15
2017-01-27T12:52:21.665Z,1011.11
2017-01-27T12:53:27.833Z,1011.13
2017-01-27T12:54:34.028Z,1011.07
2017-01-27T12:55:40.195Z,1011.1
2017-01-27T12:56:45.393Z,1011.11
2017-01-27T12:57:50.602Z,1011.07
2017-01-27T12:58:56.818Z,1011.06
2017-01-27T13:00:01.946Z,1011.14
2017-01-27T13:01:07.127Z,1011.08
2017-01-27T13:02:12.339Z,1011.08
2017-01-27T13:03:17.559Z,1011.1
2017-01-27T13:04:23.730Z,1011.06
2017-01-27T13:05:28.924Z,1011.01
2017-01-27T13:06:34.116Z,1010.96
2017-01-27T13:07:40.296Z,1010.98
2017-01-27T13:08:45.503Z,1011.02
2017-01-27T13:09:51.672Z,1011
2017-01-27T13:10:56.882Z,1011.03
2017-01-27T13:12:02.083Z,1011.05
2017-01-27T13:13:06.301Z,1011.04
2017-01-27T13:14:11.489Z,1011.06
2017-01-27T13:15:16.717Z,1011.05
2017-01-27T13:16:21.917Z,1010.99
2017-01-27T13:17:28.100Z,1010.98
2017-01-27T13:18:34.268Z,1010.95